createdAt,value
2023-03-29T00:02:04.847Z,1.20
2023-03-29T00:04:31.760Z,1.50
2023-03-29T00:07:04.004Z,1.30
2023-03-29T00:09:33.176Z,1.10
2023-03-29T00:12:01.385Z,1.15
2023-03-29T00:14:30.782Z,1.30
2023-03-29T00:16:58.820Z,1.40
2023-03-29T00:19:25.868Z,1.33
2023-03-29T00:21:52.608Z,1.50
2023-03-29T00:24:21.169Z,1.33
2023-03-29T00:26:48.355Z,1.50
2023-03-29T00:29:15.114Z,1.30
2023-03-29T00:31:41.932Z,1.30
2023-03-29T00:34:09.062Z,1.15
2023-03-29T00:36:35.783Z,1.30
2023-03-29T00:39:02.606Z,1.25
2023-03-29T00:41:29.287Z,1.27
2023-03-29T00:44:01.686Z,1.45
2023-03-29T00:46:30.419Z,1.42
2023-03-29T00:49:07.109Z,1.13
2023-03-29T00:51:36.756Z,1.20
2023-03-29T00:54:06.932Z,1.30
2023-03-29T00:56:38.602Z,1.10
2023-03-29T00:59:18.770Z,1.20
2023-03-29T01:01:54.767Z,1.50
2023-03-29T01:04:41.677Z,1.30
2023-03-29T01:07:38.165Z,1.20
2023-03-29T01:10:22.733Z,1.45
2023-03-29T01:12:56.454Z,1.33
2023-03-29T01:15:26.591Z,1.27
2023-03-29T01:17:55.601Z,1.10
2023-03-29T01:20:55.512Z,1.58
2023-03-29T01:23:30.176Z,1.20
2023-03-29T01:26:05.954Z,1.45
2023-03-29T01:28:39.173Z,1.30
2023-03-29T01:31:12.005Z,1.30
2023-03-29T01:33:49.776Z,1.48
2023-03-29T01:36:24.946Z,1.38
2023-03-29T01:39:00.620Z,1.40
2023-03-29T01:41:48.154Z,1.38
2023-03-29T01:44:24.808Z,1.23
2023-03-29T01:47:13.142Z,1.33
2023-03-29T01:49:46.122Z,1.33
2023-03-29T01:52:20.432Z,1.40
2023-03-29T01:54:54.561Z,1.60
2023-03-29T01:57:24.926Z,1.50
2023-03-29T01:59:54.906Z,1.35
2023-03-29T02:02:23.397Z,1.45
2023-03-29T02:04:54.113Z,1.35
2023-03-29T02:07:26.466Z,1.40
2023-03-29T02:09:54.320Z,1.40
2023-03-29T02:12:22.276Z,1.23
2023-03-29T02:14:49.196Z,1.25
2023-03-29T02:17:16.667Z,1.23
2023-03-29T02:19:46.159Z,1.50
2023-03-29T02:22:15.295Z,1.73
2023-03-29T02:24:45.138Z,1.80
2023-03-29T02:27:12.257Z,1.30
2023-03-29T02:29:39.006Z,1.70
2023-03-29T02:32:31.078Z,1.48
2023-03-29T02:35:36.426Z,1.23
2023-03-29T02:38:07.177Z,1.42
2023-03-29T02:40:35.619Z,1.40
2023-03-29T02:43:03.364Z,1.58
2023-03-29T02:45:31.014Z,1.50
2023-03-29T02:48:03.434Z,1.50
2023-03-29T02:50:36.979Z,1.55
2023-03-29T02:53:14.727Z,1.40
2023-03-29T02:55:41.598Z,1.38
2023-03-29T02:58:08.498Z,1.40
2023-03-29T03:00:43.101Z,1.48
2023-03-29T03:03:10.335Z,1.45
2023-03-29T03:05:38.187Z,1.40
2023-03-29T03:08:07.356Z,1.40
2023-03-29T03:10:35.499Z,1.52
2023-03-29T03:13:02.640Z,1.60
2023-03-29T03:15:31.144Z,1.30
2023-03-29T03:17:58.012Z,1.30
2023-03-29T03:20:24.895Z,1.38
2023-03-29T03:22:51.800Z,1.23
2023-03-29T03:25:21.101Z,1.48
2023-03-29T03:27:49.736Z,1.35
2023-03-29T03:30:17.277Z,1.30
2023-03-29T03:32:44.775Z,1.50
2023-03-29T03:35:11.792Z,1.33
2023-03-29T03:37:39.559Z,1.60
2023-03-29T03:40:08.928Z,1.27
2023-03-29T03:42:35.749Z,1.60
2023-03-29T03:45:02.482Z,1.52
2023-03-29T03:47:29.239Z,1.33
2023-03-29T03:49:56.356Z,1.52
2023-03-29T03:52:23.510Z,1.35
2023-03-29T03:54:50.288Z,1.38
2023-03-29T03:57:17.427Z,1.38
2023-03-29T03:59:44.773Z,1.50
2023-03-29T04:02:11.503Z,1.30
2023-03-29T04:04:39.370Z,1.65
2023-03-29T04:07:06.371Z,1.30
2023-03-29T04:09:34.136Z,1.40
2023-03-29T04:12:01.536Z,1.60
2023-03-29T04:14:28.519Z,1.42
2023-03-29T04:16:55.410Z,1.30
2023-03-29T04:19:22.339Z,1.48
2023-03-29T04:21:49.609Z,1.50
2023-03-29T04:24:17.262Z,1.67
2023-03-29T04:26:44.392Z,1.83
2023-03-29T04:29:11.217Z,1.45
2023-03-29T04:31:37.972Z,1.70
2023-03-29T04:34:04.795Z,1.20
2023-03-29T04:36:31.647Z,1.30
2023-03-29T04:39:01.350Z,1.50
2023-03-29T04:41:28.938Z,1.63
2023-03-29T04:43:56.130Z,1.60
2023-03-29T04:46:26.669Z,1.40
2023-03-29T04:48:54.075Z,1.30
2023-03-29T04:51:22.418Z,1.30
2023-03-29T04:53:50.344Z,1.40
2023-03-29T04:56:17.512Z,1.63
2023-03-29T04:58:44.601Z,1.30
2023-03-29T05:01:11.629Z,1.50
2023-03-29T05:03:38.547Z,1.60
2023-03-29T05:06:07.346Z,1.63
2023-03-29T05:08:38.329Z,1.38
2023-03-29T05:11:10.432Z,1.50
2023-03-29T05:13:38.021Z,1.40
2023-03-29T05:16:05.209Z,1.63
2023-03-29T05:18:32.026Z,1.35
2023-03-29T05:20:59.675Z,1.40
2023-03-29T05:23:27.347Z,1.60
2023-03-29T05:25:54.469Z,1.30
2023-03-29T05:28:21.701Z,1.50
2023-03-29T05:31:00.254Z,1.50
2023-03-29T05:33:27.482Z,1.27
2023-03-29T05:36:05.543Z,1.40
2023-03-29T05:38:35.808Z,1.50
2023-03-29T05:41:03.179Z,2.47
2023-03-29T05:43:30.109Z,1.65
2023-03-29T05:45:57.078Z,1.42
2023-03-29T05:48:24.706Z,1.52
2023-03-29T05:50:53.520Z,1.58
2023-03-29T05:53:22.746Z,1.67
2023-03-29T05:55:49.914Z,1.23
2023-03-29T05:58:20.304Z,1.40
2023-03-29T06:00:49.632Z,1.38
2023-03-29T06:03:21.391Z,1.58
2023-03-29T06:05:57.745Z,1.80
2023-03-29T06:08:26.045Z,1.45
2023-03-29T06:11:04.596Z,1.35
2023-03-29T06:13:34.052Z,1.35
2023-03-29T06:16:01.212Z,1.50
2023-03-29T06:18:28.140Z,1.50
2023-03-29T06:20:54.906Z,1.63
2023-03-29T06:23:23.216Z,1.77
2023-03-29T06:25:53.237Z,1.55
2023-03-29T06:28:20.023Z,1.40
2023-03-29T06:30:47.900Z,2.10
2023-03-29T06:33:16.833Z,2.13
2023-03-29T06:35:46.137Z,1.40
2023-03-29T06:38:13.795Z,1.80
2023-03-29T06:40:41.044Z,1.40
2023-03-29T06:43:07.787Z,1.83
2023-03-29T06:45:36.957Z,1.50
2023-03-29T06:48:05.041Z,1.73
2023-03-29T06:50:32.447Z,1.80
2023-03-29T06:52:59.159Z,1.55
2023-03-29T06:55:27.387Z,1.50
2023-03-29T06:57:54.833Z,1.85
2023-03-29T07:00:30.750Z,1.90
2023-03-29T07:02:58.463Z,2.00
2023-03-29T07:05:28.592Z,2.00
2023-03-29T07:08:08.106Z,2.30
2023-03-29T07:10:43.569Z,2.08
2023-03-29T07:13:14.621Z,1.85
2023-03-29T07:15:43.217Z,1.88
2023-03-29T07:18:11.164Z,1.73
2023-03-29T07:20:42.626Z,2.08
2023-03-29T07:23:09.744Z,1.63
2023-03-29T07:25:37.510Z,2.10
2023-03-29T07:28:04.860Z,1.60
2023-03-29T07:30:32.576Z,1.60
2023-03-29T07:33:00.671Z,1.50
2023-03-29T07:35:28.266Z,2.15
2023-03-29T07:37:55.943Z,1.77
2023-03-29T07:40:23.842Z,2.22
2023-03-29T07:42:56.642Z,1.70
2023-03-29T07:45:27.382Z,1.45
2023-03-29T07:47:57.267Z,1.95
2023-03-29T07:50:24.605Z,1.67
2023-03-29T07:52:51.498Z,1.80
2023-03-29T07:55:18.623Z,1.50
2023-03-29T07:57:45.333Z,1.45
2023-03-29T08:00:16.307Z,1.58
2023-03-29T08:02:44.833Z,1.52
2023-03-29T08:05:13.639Z,1.60
2023-03-29T08:07:42.297Z,1.67
2023-03-29T08:10:12.452Z,2.17
2023-03-29T08:12:42.017Z,1.75
2023-03-29T08:15:09.392Z,1.67
2023-03-29T08:17:36.925Z,1.65
2023-03-29T08:20:06.174Z,1.90
2023-03-29T08:22:34.204Z,2.00
2023-03-29T08:25:02.578Z,1.85
2023-03-29T08:27:29.363Z,1.60
2023-03-29T08:29:56.256Z,1.70
2023-03-29T08:32:23.011Z,1.70
2023-03-29T08:34:49.699Z,1.70
2023-03-29T08:37:16.651Z,1.80
2023-03-29T08:39:43.658Z,1.80
2023-03-29T08:42:40.934Z,2.58
2023-03-29T08:45:23.076Z,1.90
2023-03-29T08:48:04.474Z,1.98
2023-03-29T08:50:36.721Z,1.70
2023-03-29T08:53:15.432Z,1.60
2023-03-29T08:55:45.301Z,1.73
2023-03-29T08:58:26.075Z,1.90
2023-03-29T09:00:58.841Z,1.67
2023-03-29T09:03:34.594Z,1.80
2023-03-29T09:06:07.724Z,1.88
2023-03-29T09:08:41.881Z,1.98
2023-03-29T09:11:23.503Z,1.98
2023-03-29T09:14:12.236Z,1.95
2023-03-29T09:16:57.087Z,2.22
2023-03-29T09:19:42.307Z,2.03
2023-03-29T09:22:20.799Z,1.75
2023-03-29T09:24:56.405Z,1.80
2023-03-29T09:27:33.746Z,1.95
2023-03-29T09:30:25.744Z,2.00
2023-03-29T09:32:56.598Z,1.90
2023-03-29T09:35:27.629Z,1.92
2023-03-29T09:37:55.137Z,1.73
2023-03-29T09:40:32.991Z,1.85
2023-03-29T09:43:04.144Z,1.80
2023-03-29T09:45:31.270Z,2.03
2023-03-29T09:48:06.579Z,1.95
2023-03-29T09:50:37.863Z,2.03
2023-03-29T09:53:05.452Z,2.60
2023-03-29T09:55:36.352Z,3.00
2023-03-29T09:58:27.471Z,2.85
2023-03-29T10:00:58.401Z,3.40
2023-03-29T10:03:31.125Z,2.70
2023-03-29T10:06:01.637Z,2.40
2023-03-29T10:08:31.454Z,2.70
2023-03-29T10:11:00.218Z,2.35
2023-03-29T10:13:30.586Z,2.70
2023-03-29T10:16:09.618Z,2.42
2023-03-29T10:18:42.485Z,2.78
2023-03-29T10:21:12.976Z,2.55
2023-03-29T10:23:40.136Z,2.75
2023-03-29T10:26:14.663Z,2.65
2023-03-29T10:28:41.694Z,2.80
2023-03-29T10:31:17.950Z,2.80
2023-03-29T10:33:50.747Z,2.75
2023-03-29T10:36:17.653Z,2.60
2023-03-29T10:38:44.757Z,2.65
2023-03-29T10:41:12.726Z,2.33
2023-03-29T10:43:45.353Z,2.63
2023-03-29T10:46:22.380Z,2.30
2023-03-29T10:48:55.183Z,2.55
2023-03-29T10:51:24.267Z,2.38
2023-03-29T10:53:51.059Z,2.70
2023-03-29T10:56:29.516Z,2.30
2023-03-29T10:58:56.205Z,2.75
2023-03-29T11:01:48.943Z,2.33
2023-03-29T11:05:00.269Z,2.58
2023-03-29T11:07:34.616Z,2.70
2023-03-29T11:10:26.078Z,2.47
2023-03-29T11:12:55.547Z,2.50
2023-03-29T11:15:28.220Z,2.28
2023-03-29T11:18:32.474Z,2.85
2023-03-29T11:21:19.748Z,2.60
2023-03-29T11:24:09.137Z,2.30
2023-03-29T11:26:56.334Z,2.35
2023-03-29T11:29:29.546Z,2.35
2023-03-29T11:32:05.378Z,2.55
2023-03-29T11:34:38.702Z,2.40
2023-03-29T11:37:42.210Z,2.30
2023-03-29T11:40:32.463Z,2.20
2023-03-29T11:43:03.114Z,2.45
2023-03-29T11:45:35.483Z,2.60
2023-03-29T11:48:05.049Z,3.13
2023-03-29T11:50:42.688Z,3.25
2023-03-29T11:53:19.710Z,3.25
2023-03-29T11:55:47.341Z,2.78
2023-03-29T11:58:27.559Z,2.88
2023-03-29T12:01:01.822Z,2.47
2023-03-29T12:03:46.350Z,2.30
2023-03-29T12:06:31.949Z,3.05
2023-03-29T12:09:04.602Z,2.47
2023-03-29T12:11:44.824Z,2.67
2023-03-29T12:14:25.465Z,2.58
2023-03-29T12:17:07.245Z,2.45
2023-03-29T12:19:46.726Z,2.70
2023-03-29T12:22:13.476Z,2.70
2023-03-29T12:24:43.612Z,2.67
2023-03-29T12:27:26.079Z,2.70
2023-03-29T12:29:52.707Z,2.40
2023-03-29T12:32:49.087Z,2.63
2023-03-29T12:35:40.192Z,2.35
2023-03-29T12:38:20.752Z,2.47
2023-03-29T12:40:53.818Z,2.78
2023-03-29T12:43:27.123Z,2.65
2023-03-29T12:46:16.224Z,2.55
2023-03-29T12:48:45.372Z,2.28
2023-03-29T12:51:16.104Z,2.25
2023-03-29T12:53:49.104Z,2.40
2023-03-29T12:56:23.496Z,2.80
2023-03-29T12:59:16.547Z,2.60
2023-03-29T13:02:21.991Z,2.50
2023-03-29T13:04:52.425Z,2.40
2023-03-29T13:07:22.340Z,2.20
2023-03-29T13:09:54.639Z,2.25
2023-03-29T13:12:31.443Z,2.40
2023-03-29T13:15:01.994Z,2.70
2023-03-29T13:17:56.616Z,2.58
2023-03-29T13:20:37.755Z,2.40
2023-03-29T13:23:45.886Z,2.58
2023-03-29T13:26:46.446Z,2.38
2023-03-29T13:29:47.949Z,2.55
2023-03-29T13:32:27.897Z,2.40
2023-03-29T13:38:15.305Z,2.65
2023-03-29T13:40:46.894Z,2.55
2023-03-29T13:46:11.799Z,2.33
2023-03-29T13:48:38.732Z,2.40
2023-03-29T13:51:41.090Z,2.35
2023-03-29T13:54:24.863Z,2.50
2023-03-29T13:57:10.453Z,2.55
2023-03-29T13:59:47.677Z,2.30
2023-03-29T14:02:22.388Z,2.50
2023-03-29T14:04:52.314Z,2.40
2023-03-29T14:07:26.216Z,2.38
2023-03-29T14:09:55.649Z,2.05
2023-03-29T14:12:22.733Z,2.33
2023-03-29T14:15:01.967Z,2.30
2023-03-29T14:17:29.182Z,2.33
2023-03-29T14:19:58.909Z,2.10
2023-03-29T14:22:31.171Z,2.63
2023-03-29T14:25:02.530Z,2.33
2023-03-29T14:27:31.885Z,2.40
2023-03-29T14:29:58.883Z,2.22
2023-03-29T14:32:30.838Z,2.45
2023-03-29T14:34:58.726Z,2.33
2023-03-29T14:37:28.518Z,2.50
2023-03-29T14:39:56.576Z,2.53
2023-03-29T14:42:28.432Z,2.15
2023-03-29T14:45:04.101Z,2.47
2023-03-29T14:47:33.018Z,2.42
2023-03-29T14:50:01.681Z,2.78
2023-03-29T14:52:30.558Z,2.38
2023-03-29T14:55:01.046Z,2.60
2023-03-29T14:57:33.227Z,2.15
2023-03-29T15:00:02.550Z,2.80
2023-03-29T15:02:34.119Z,2.65
2023-03-29T15:07:33.800Z,2.33
2023-03-29T15:10:02.246Z,2.53
2023-03-29T15:12:30.751Z,2.35
2023-03-29T15:14:58.288Z,2.17
2023-03-29T15:17:50.358Z,2.40
2023-03-29T15:20:28.825Z,2.83
2023-03-29T15:23:20.717Z,2.40
2023-03-29T15:28:35.739Z,2.47
2023-03-29T15:31:13.038Z,2.50
2023-03-29T15:33:41.700Z,2.42
2023-03-29T15:36:11.262Z,2.70
2023-03-29T15:41:10.551Z,2.85
2023-03-29T15:43:37.443Z,2.40
2023-03-29T15:46:04.726Z,2.67
2023-03-29T15:48:33.988Z,2.45
2023-03-29T15:51:04.820Z,2.50
2023-03-29T15:53:33.389Z,2.50
2023-03-29T15:56:02.395Z,2.47
2023-03-29T15:58:31.753Z,2.30
2023-03-29T16:01:14.191Z,2.67
2023-03-29T16:03:41.700Z,2.33
2023-03-29T16:06:11.931Z,2.88
2023-03-29T16:08:38.856Z,2.30
2023-03-29T16:11:06.738Z,2.67
2023-03-29T16:13:33.469Z,2.42
2023-03-29T16:16:00.261Z,2.65
2023-03-29T16:18:27.229Z,2.40
2023-03-29T16:20:54.558Z,2.58
2023-03-29T16:23:21.327Z,2.80
2023-03-29T16:25:48.015Z,2.20
2023-03-29T16:28:14.662Z,2.30
2023-03-29T16:30:43.005Z,2.70
2023-03-29T16:33:10.692Z,2.50
2023-03-29T16:35:40.071Z,2.47
2023-03-29T16:38:07.944Z,2.38
2023-03-29T16:40:35.241Z,2.38
2023-03-29T16:43:02.711Z,2.47
2023-03-29T16:45:29.722Z,2.22
2023-03-29T16:47:56.985Z,2.22
2023-03-29T16:50:23.833Z,2.45
2023-03-29T16:52:52.587Z,2.40
2023-03-29T16:55:19.526Z,1.95
2023-03-29T16:57:47.719Z,2.70
2023-03-29T17:00:18.565Z,2.13
2023-03-29T17:02:45.932Z,1.85
2023-03-29T17:05:13.147Z,2.08
2023-03-29T17:07:40.149Z,2.20
2023-03-29T17:10:08.176Z,2.13
2023-03-29T17:12:35.694Z,2.25
2023-03-29T17:15:03.386Z,2.15
2023-03-29T17:17:30.075Z,2.35
2023-03-29T17:19:56.851Z,2.00
2023-03-29T17:22:24.305Z,1.83
2023-03-29T17:24:51.474Z,2.10
2023-03-29T17:27:18.809Z,2.05
2023-03-29T17:29:45.562Z,1.88
2023-03-29T17:32:12.241Z,2.00
2023-03-29T17:34:39.005Z,2.20
2023-03-29T17:37:05.769Z,1.70
2023-03-29T17:39:37.089Z,2.20
2023-03-29T17:42:05.387Z,1.95
2023-03-29T17:44:33.273Z,1.77
2023-03-29T17:47:01.228Z,1.90
2023-03-29T17:49:28.322Z,1.90
2023-03-29T17:51:55.112Z,1.80
2023-03-29T17:54:21.844Z,1.60
2023-03-29T17:56:48.899Z,2.03
2023-03-29T17:59:15.897Z,2.17
2023-03-29T18:01:42.885Z,1.73
2023-03-29T18:04:10.068Z,1.83
2023-03-29T18:06:36.963Z,1.88
2023-03-29T18:09:03.934Z,1.60
2023-03-29T18:11:31.904Z,1.60
2023-03-29T18:13:59.587Z,2.00
2023-03-29T18:16:26.574Z,2.00
2023-03-29T18:18:53.450Z,1.98
2023-03-29T18:21:20.820Z,1.73
2023-03-29T18:23:49.236Z,1.88
2023-03-29T18:26:16.778Z,1.52
2023-03-29T18:28:48.637Z,2.00
2023-03-29T18:31:15.990Z,1.60
2023-03-29T18:33:42.869Z,2.00
2023-03-29T18:36:13.249Z,1.77
2023-03-29T18:38:40.643Z,1.60
2023-03-29T18:41:08.540Z,1.70
2023-03-29T18:43:37.063Z,1.67
2023-03-29T18:46:04.174Z,1.60
2023-03-29T18:48:31.284Z,1.70
2023-03-29T18:50:58.472Z,1.70
2023-03-29T18:53:26.237Z,1.65
2023-03-29T18:55:52.886Z,1.80
2023-03-29T18:58:23.857Z,1.60
2023-03-29T19:00:51.423Z,1.67
2023-03-29T19:03:18.328Z,1.52
2023-03-29T19:05:52.645Z,1.75
2023-03-29T19:08:19.517Z,2.10
2023-03-29T19:10:46.305Z,1.83
2023-03-29T19:13:13.142Z,1.65
2023-03-29T19:15:42.518Z,1.73
2023-03-29T19:18:09.554Z,2.15
2023-03-29T19:20:36.748Z,1.80
2023-03-29T19:23:04.123Z,1.70
2023-03-29T19:25:32.040Z,1.77
2023-03-29T19:27:59.092Z,1.50
2023-03-29T19:30:25.854Z,1.70
2023-03-29T19:32:52.864Z,1.70
2023-03-29T19:35:19.835Z,1.80
2023-03-29T19:37:46.655Z,1.50
2023-03-29T19:40:13.585Z,1.73
2023-03-29T19:42:41.110Z,1.50
2023-03-29T19:45:09.558Z,1.50
2023-03-29T19:47:37.114Z,1.80
2023-03-29T19:50:05.055Z,1.73
2023-03-29T19:52:32.890Z,2.00
2023-03-29T19:54:59.611Z,1.48
2023-03-29T19:57:26.470Z,1.80
2023-03-29T19:59:53.925Z,1.75
2023-03-29T20:02:20.821Z,1.65
2023-03-29T20:04:47.551Z,1.63
2023-03-29T20:07:14.325Z,1.80
2023-03-29T20:09:44.639Z,1.65
2023-03-29T20:12:12.020Z,1.50
2023-03-29T20:14:40.173Z,1.45
2023-03-29T20:17:07.634Z,1.63
2023-03-29T20:19:36.660Z,1.30
2023-03-29T20:22:04.537Z,1.50
2023-03-29T20:24:32.641Z,1.60
2023-03-29T20:26:59.532Z,1.50
2023-03-29T20:29:26.331Z,1.63
2023-03-29T20:31:53.302Z,1.55
2023-03-29T20:34:20.118Z,1.80
2023-03-29T20:36:47.015Z,1.60
2023-03-29T20:39:17.645Z,1.75
2023-03-29T20:41:47.496Z,1.63
2023-03-29T20:44:16.923Z,1.48
2023-03-29T20:46:54.442Z,1.70
2023-03-29T20:49:26.507Z,1.70
2023-03-29T20:51:58.408Z,1.40
2023-03-29T20:54:26.401Z,1.52
2023-03-29T20:56:54.718Z,1.48
2023-03-29T20:59:22.882Z,1.70
2023-03-29T21:01:50.261Z,2.05
2023-03-29T21:04:17.879Z,1.90
2023-03-29T21:06:46.125Z,1.50
2023-03-29T21:09:13.668Z,1.65
2023-03-29T21:11:40.864Z,1.83
2023-03-29T21:14:09.232Z,1.42
2023-03-29T21:16:36.085Z,2.10
2023-03-29T21:19:02.903Z,1.73
2023-03-29T21:21:29.889Z,1.83
2023-03-29T21:23:56.600Z,1.95
2023-03-29T21:26:23.496Z,1.80
2023-03-29T21:28:50.340Z,1.60
2023-03-29T21:31:17.129Z,1.60
2023-03-29T21:33:43.867Z,1.85
2023-03-29T21:36:10.839Z,1.73
2023-03-29T21:38:37.558Z,1.70
2023-03-29T21:41:04.523Z,1.70
2023-03-29T21:43:31.371Z,1.80
2023-03-29T21:45:58.107Z,1.83
2023-03-29T21:48:24.887Z,1.77
2023-03-29T21:50:51.642Z,2.13
2023-03-29T21:53:18.434Z,1.83
2023-03-29T21:55:47.991Z,1.80
2023-03-29T21:58:14.771Z,1.50
2023-03-29T22:00:41.691Z,1.90
2023-03-29T22:03:08.442Z,1.95
2023-03-29T22:05:35.541Z,1.85
2023-03-29T22:08:03.959Z,1.98
2023-03-29T22:10:32.981Z,1.50
2023-03-29T22:13:00.618Z,1.92
2023-03-29T22:15:35.425Z,1.58
2023-03-29T22:18:03.650Z,1.88
2023-03-29T22:20:30.607Z,1.95
2023-03-29T22:22:57.321Z,1.88
2023-03-29T22:25:24.371Z,1.63
2023-03-29T22:27:51.065Z,1.80
2023-03-29T22:30:17.911Z,1.85
2023-03-29T22:32:44.705Z,1.90
2023-03-29T22:35:12.641Z,1.75
2023-03-29T22:37:44.967Z,1.92
2023-03-29T22:40:13.156Z,1.80
2023-03-29T22:42:39.943Z,1.70
2023-03-29T22:45:07.560Z,1.92
2023-03-29T22:47:35.334Z,1.85
2023-03-29T22:50:02.147Z,1.98
2023-03-29T22:52:29.073Z,1.98
2023-03-29T22:54:55.855Z,2.00
2023-03-29T22:57:22.599Z,2.00
2023-03-29T22:59:49.409Z,2.13
2023-03-29T23:02:16.218Z,1.95
2023-03-29T23:04:42.983Z,1.83
2023-03-29T23:07:09.733Z,2.22
2023-03-29T23:09:36.567Z,2.08
2023-03-29T23:12:03.237Z,1.95
2023-03-29T23:14:29.974Z,2.20
2023-03-29T23:16:56.654Z,1.73
2023-03-29T23:19:23.451Z,1.92
2023-03-29T23:21:50.570Z,2.15
2023-03-29T23:24:19.003Z,2.15
2023-03-29T23:26:48.920Z,1.90
2023-03-29T23:29:15.666Z,2.00
2023-03-29T23:31:42.459Z,2.13
2023-03-29T23:34:09.179Z,1.75
2023-03-29T23:36:35.990Z,1.85
2023-03-29T23:39:02.739Z,2.20
2023-03-29T23:41:30.499Z,1.80
2023-03-29T23:43:57.925Z,1.80
2023-03-29T23:46:25.170Z,2.03
2023-03-29T23:48:52.040Z,1.98
2023-03-29T23:51:22.928Z,1.90
2023-03-29T23:53:50.645Z,1.92
2023-03-29T23:56:17.580Z,1.73
2023-03-29T23:58:44.565Z,1.75
